createdAt,value
2019-03-29T00:00:48.122Z,77.67
2019-03-29T00:03:16.404Z,77.98
2019-03-29T00:05:44.887Z,78.16
2019-03-29T00:08:13.257Z,78.20
2019-03-29T00:10:41.723Z,78.37
2019-03-29T00:13:10.010Z,78.36
2019-03-29T00:15:38.388Z,78.24
2019-03-29T00:18:06.950Z,78.26
2019-03-29T00:20:35.284Z,78.20
2019-03-29T00:23:03.615Z,78.15
2019-03-29T00:25:33.057Z,78.23
2019-03-29T00:28:01.547Z,78.36
2019-03-29T00:30:29.896Z,78.47
2019-03-29T00:32:58.207Z,78.33
2019-03-29T00:35:26.485Z,78.28
2019-03-29T00:37:55.772Z,78.46
2019-03-29T00:40:24.268Z,78.87
2019-03-29T00:42:52.850Z,79.03
2019-03-29T00:45:21.530Z,78.86
2019-03-29T00:47:49.828Z,78.79
2019-03-29T00:50:18.134Z,78.53
2019-03-29T00:52:46.446Z,78.64
2019-03-29T00:55:15.095Z,78.83
2019-03-29T00:57:43.381Z,78.92
2019-03-29T01:00:12.046Z,79.00
2019-03-29T01:02:40.358Z,79.16
2019-03-29T01:05:08.802Z,79.23
2019-03-29T01:07:37.105Z,79.18
2019-03-29T01:10:06.481Z,79.10
2019-03-29T01:12:35.083Z,79.15
2019-03-29T01:15:04.729Z,79.30
2019-03-29T01:17:33.020Z,79.31
2019-03-29T01:20:01.340Z,79.44
2019-03-29T01:22:29.634Z,79.54
2019-03-29T01:24:58.195Z,79.37
2019-03-29T01:27:26.503Z,79.36
2019-03-29T01:29:55.048Z,79.54
2019-03-29T01:32:23.371Z,79.68
2019-03-29T01:34:51.655Z,79.82
2019-03-29T01:37:20.149Z,79.69
2019-03-29T01:39:48.456Z,79.47
2019-03-29T01:42:17.044Z,79.62
2019-03-29T01:44:45.334Z,79.69
2019-03-29T01:47:13.643Z,79.82
2019-03-29T01:49:42.294Z,79.88
2019-03-29T01:52:10.602Z,80.00
2019-03-29T01:54:38.922Z,80.02
2019-03-29T01:57:07.526Z,80.21
2019-03-29T01:59:36.113Z,80.41
2019-03-29T02:02:04.400Z,80.45
2019-03-29T02:04:32.971Z,80.49
2019-03-29T02:07:01.258Z,80.44
2019-03-29T02:09:30.264Z,80.47
2019-03-29T02:11:59.249Z,80.54
2019-03-29T02:14:27.880Z,80.27
2019-03-29T02:16:56.265Z,80.30
2019-03-29T02:19:24.574Z,80.43
2019-03-29T02:21:52.870Z,80.26
2019-03-29T02:24:21.179Z,80.34
2019-03-29T02:26:49.479Z,80.46
2019-03-29T02:29:17.872Z,80.65
2019-03-29T02:31:46.198Z,80.83
2019-03-29T02:34:15.805Z,80.83
2019-03-29T02:36:44.673Z,80.97
2019-03-29T02:39:12.974Z,81.12
2019-03-29T02:41:41.257Z,81.02
2019-03-29T02:44:09.575Z,81.00
2019-03-29T02:46:38.180Z,81.05
2019-03-29T02:49:06.858Z,81.29
2019-03-29T02:51:35.177Z,81.37
2019-03-29T02:54:03.487Z,81.17
2019-03-29T02:56:32.114Z,81.15
2019-03-29T02:59:00.417Z,81.15
2019-03-29T03:01:28.790Z,81.32
2019-03-29T03:03:57.115Z,81.55
2019-03-29T03:06:25.443Z,81.40
2019-03-29T03:09:11.764Z,81.36
2019-03-29T03:11:23.783Z,81.64
2019-03-29T03:13:52.100Z,81.77
2019-03-29T03:16:20.390Z,81.77
2019-03-29T03:18:48.708Z,81.70
2019-03-29T03:21:17.013Z,81.73
2019-03-29T03:23:45.340Z,81.57
2019-03-29T03:26:13.627Z,81.53
2019-03-29T03:28:41.956Z,81.61
2019-03-29T03:31:10.248Z,81.69
2019-03-29T03:33:38.568Z,81.71
2019-03-29T03:36:06.852Z,81.81
2019-03-29T03:38:35.204Z,82.07
2019-03-29T03:41:03.508Z,81.99
2019-03-29T03:43:31.853Z,81.95
2019-03-29T03:46:00.611Z,82.03
2019-03-29T03:48:28.890Z,82.13
2019-03-29T03:50:57.667Z,82.15
2019-03-29T03:53:25.974Z,82.35
2019-03-29T03:55:55.230Z,82.40
2019-03-29T03:58:24.318Z,82.22
2019-03-29T04:00:54.561Z,82.22
2019-03-29T04:03:23.300Z,82.43
2019-03-29T04:05:51.761Z,82.53
2019-03-29T04:08:20.396Z,82.49
2019-03-29T04:10:48.723Z,82.46
2019-03-29T04:13:17.116Z,82.37
2019-03-29T04:15:45.463Z,82.36
2019-03-29T04:18:16.074Z,82.54
2019-03-29T04:20:43.818Z,82.59
2019-03-29T04:23:12.368Z,82.54
2019-03-29T04:25:40.716Z,82.71
2019-03-29T04:28:09.049Z,82.86
2019-03-29T04:30:37.667Z,82.90
2019-03-29T04:33:10.574Z,82.82
2019-03-29T04:35:36.266Z,82.75
2019-03-29T04:38:04.666Z,82.72
2019-03-29T04:40:33.426Z,82.85
2019-03-29T04:43:01.811Z,82.76
2019-03-29T04:45:30.126Z,82.79
2019-03-29T04:47:58.441Z,82.95
2019-03-29T04:50:26.762Z,82.95
2019-03-29T04:52:55.081Z,83.00
2019-03-29T04:55:23.411Z,83.09
2019-03-29T04:57:51.713Z,82.99
2019-03-29T05:00:20.367Z,82.91
2019-03-29T05:02:48.688Z,82.76
2019-03-29T05:05:17.374Z,82.79
2019-03-29T05:07:46.029Z,82.89
2019-03-29T05:10:21.126Z,83.10
2019-03-29T05:12:44.442Z,83.23
2019-03-29T05:15:12.794Z,83.40
2019-03-29T05:17:41.107Z,83.14
2019-03-29T05:20:09.397Z,83.15
2019-03-29T05:22:37.715Z,83.15
2019-03-29T05:25:06.687Z,83.06
2019-03-29T05:27:35.281Z,83.02
2019-03-29T05:30:04.358Z,83.19
2019-03-29T05:32:32.971Z,83.37
2019-03-29T05:35:01.275Z,83.50
2019-03-29T05:37:29.593Z,83.39
2019-03-29T05:39:57.899Z,83.02
2019-03-29T05:42:26.300Z,83.12
2019-03-29T05:44:54.619Z,83.24
2019-03-29T05:47:22.904Z,83.16
2019-03-29T05:49:51.213Z,83.00
2019-03-29T05:52:19.507Z,82.72
2019-03-29T05:54:47.822Z,82.70
2019-03-29T05:57:16.483Z,82.92
2019-03-29T05:59:44.775Z,83.05
2019-03-29T06:02:13.088Z,83.01
2019-03-29T06:04:41.414Z,82.94
2019-03-29T06:07:09.711Z,82.95
2019-03-29T06:09:38.029Z,82.83
2019-03-29T06:12:06.339Z,82.74
2019-03-29T06:14:34.636Z,82.55
2019-03-29T06:17:02.962Z,82.61
2019-03-29T06:19:31.269Z,82.53
2019-03-29T06:21:59.558Z,82.46
2019-03-29T06:24:27.897Z,82.42
2019-03-29T06:26:56.289Z,82.39
2019-03-29T06:29:24.952Z,82.31
2019-03-29T06:31:53.524Z,82.30
2019-03-29T06:34:21.851Z,82.28
2019-03-29T06:36:50.648Z,82.18
2019-03-29T06:39:21.377Z,82.07
2019-03-29T06:41:49.895Z,82.24
2019-03-29T06:44:18.223Z,82.30
2019-03-29T06:46:46.599Z,82.33
2019-03-29T06:49:14.909Z,82.25
2019-03-29T06:51:43.259Z,82.24
2019-03-29T06:54:11.684Z,82.31
2019-03-29T06:56:39.981Z,82.23
2019-03-29T06:59:08.575Z,81.84
2019-03-29T07:01:36.875Z,81.54
2019-03-29T07:04:05.196Z,81.52
2019-03-29T07:06:33.477Z,81.32
2019-03-29T07:09:02.034Z,81.09
2019-03-29T07:11:30.391Z,80.88
2019-03-29T07:13:58.704Z,80.76
2019-03-29T07:16:27.044Z,80.49
2019-03-29T07:18:55.427Z,80.31
2019-03-29T07:21:23.740Z,80.04
2019-03-29T07:23:52.049Z,79.67
2019-03-29T07:26:20.630Z,79.91
2019-03-29T07:28:49.027Z,79.47
2019-03-29T07:31:17.346Z,79.49
2019-03-29T07:33:45.655Z,78.90
2019-03-29T07:36:13.976Z,78.73
2019-03-29T07:38:42.276Z,78.61
2019-03-29T07:41:10.892Z,78.52
2019-03-29T07:43:39.210Z,78.05
2019-03-29T07:46:07.808Z,77.53
2019-03-29T07:48:36.450Z,77.54
2019-03-29T07:51:04.772Z,77.50
2019-03-29T07:53:33.609Z,77.33
2019-03-29T07:56:02.190Z,76.79
2019-03-29T07:58:30.774Z,76.84
2019-03-29T08:00:59.333Z,76.09
2019-03-29T08:03:27.952Z,75.70
2019-03-29T08:05:56.258Z,75.70
2019-03-29T08:08:31.795Z,75.81
2019-03-29T08:10:54.623Z,75.57
2019-03-29T08:13:23.058Z,75.40
2019-03-29T08:15:51.357Z,74.83
2019-03-29T08:18:19.685Z,74.46
2019-03-29T08:20:47.987Z,74.04
2019-03-29T08:23:16.310Z,73.89
2019-03-29T08:25:44.688Z,73.87
2019-03-29T08:28:13.021Z,73.22
2019-03-29T08:30:41.344Z,73.34
2019-03-29T08:33:09.667Z,73.10
2019-03-29T08:35:38.056Z,72.61
2019-03-29T08:38:06.503Z,72.16
2019-03-29T08:40:34.999Z,72.25
2019-03-29T08:43:03.359Z,71.75
2019-03-29T08:45:31.685Z,71.62
2019-03-29T08:48:02.165Z,71.64
2019-03-29T08:50:30.036Z,71.29
2019-03-29T08:52:58.349Z,70.97
2019-03-29T08:55:26.713Z,70.57
2019-03-29T08:57:55.035Z,70.33
2019-03-29T09:00:30.942Z,70.27
2019-03-29T09:02:59.255Z,70.54
2019-03-29T09:05:27.865Z,70.17
2019-03-29T09:07:56.266Z,70.00
2019-03-29T09:10:26.203Z,70.07
2019-03-29T09:12:54.550Z,69.87
2019-03-29T09:15:23.485Z,69.22
2019-03-29T09:17:51.802Z,68.98
2019-03-29T09:20:20.140Z,68.15
2019-03-29T09:22:48.450Z,68.13
2019-03-29T09:25:17.033Z,68.16
2019-03-29T09:27:45.380Z,68.08
2019-03-29T09:30:13.994Z,67.50
2019-03-29T09:32:42.683Z,66.44
2019-03-29T09:35:11.066Z,66.30
2019-03-29T09:37:39.655Z,66.12
2019-03-29T09:40:08.447Z,65.61
2019-03-29T09:42:36.754Z,65.11
2019-03-29T09:45:07.257Z,64.88
2019-03-29T09:47:40.174Z,65.14
2019-03-29T09:50:10.348Z,64.86
2019-03-29T09:52:37.422Z,64.39
2019-03-29T09:55:05.743Z,64.81
2019-03-29T09:57:38.243Z,63.89
2019-03-29T10:00:20.647Z,63.74
2019-03-29T10:02:39.120Z,64.05
2019-03-29T10:05:08.024Z,63.46
2019-03-29T10:07:36.324Z,63.14
2019-03-29T10:10:05.703Z,62.30
2019-03-29T10:12:43.317Z,62.32
2019-03-29T10:15:05.655Z,62.27
2019-03-29T10:17:34.118Z,62.28
2019-03-29T10:20:02.708Z,62.21
2019-03-29T10:22:31.026Z,62.02
2019-03-29T10:25:02.210Z,61.88
2019-03-29T10:27:29.665Z,61.26
2019-03-29T10:29:57.965Z,60.96
2019-03-29T10:32:26.289Z,61.15
2019-03-29T10:34:54.601Z,61.05
2019-03-29T10:37:23.005Z,60.66
2019-03-29T10:39:51.657Z,60.10
2019-03-29T10:42:19.967Z,59.67
2019-03-29T10:44:49.583Z,59.65
2019-03-29T10:47:18.309Z,59.24
2019-03-29T10:49:46.902Z,59.11
2019-03-29T10:52:15.218Z,59.16
2019-03-29T10:54:43.510Z,59.00
2019-03-29T10:57:11.819Z,58.82
2019-03-29T10:59:40.412Z,59.04
2019-03-29T11:02:08.819Z,59.47
2019-03-29T11:04:37.140Z,59.07
2019-03-29T11:07:05.454Z,58.91
2019-03-29T11:09:36.845Z,58.26
2019-03-29T11:12:04.255Z,57.85
2019-03-29T11:14:32.570Z,58.16
2019-03-29T11:17:00.868Z,59.11
2019-03-29T11:19:29.171Z,58.39
2019-03-29T11:21:57.484Z,58.38
2019-03-29T11:24:25.806Z,57.63
2019-03-29T11:26:54.105Z,57.50
2019-03-29T11:29:22.425Z,57.72
2019-03-29T11:31:50.739Z,57.21
2019-03-29T11:34:20.989Z,56.91
2019-03-29T11:36:52.380Z,57.40
2019-03-29T11:39:19.209Z,56.97
2019-03-29T11:41:47.501Z,56.88
2019-03-29T11:44:16.146Z,56.99
2019-03-29T11:46:44.636Z,57.46
2019-03-29T11:49:12.938Z,57.85
2019-03-29T11:51:41.244Z,59.06
2019-03-29T11:54:09.546Z,58.86
2019-03-29T11:56:37.867Z,58.57
2019-03-29T11:59:06.157Z,57.96
2019-03-29T12:01:34.474Z,58.46
2019-03-29T12:04:03.067Z,58.33
2019-03-29T12:06:31.653Z,58.23
2019-03-29T12:08:59.964Z,57.77
2019-03-29T12:11:28.285Z,57.80
2019-03-29T12:13:56.587Z,57.49
2019-03-29T12:16:24.888Z,57.43
2019-03-29T12:18:53.264Z,57.00
2019-03-29T12:21:21.578Z,56.92
2019-03-29T12:23:49.869Z,57.07
2019-03-29T12:26:18.183Z,56.61
2019-03-29T12:28:46.500Z,56.28
2019-03-29T12:31:14.804Z,56.09
2019-03-29T12:33:43.116Z,55.89
2019-03-29T12:36:11.418Z,54.67
2019-03-29T12:38:39.821Z,54.93
2019-03-29T12:41:08.168Z,55.15
2019-03-29T12:43:36.488Z,56.10
2019-03-29T12:46:05.541Z,54.88
2019-03-29T12:48:33.847Z,54.43
2019-03-29T12:51:02.133Z,54.05
2019-03-29T12:53:30.515Z,53.82
2019-03-29T12:55:58.812Z,53.14
2019-03-29T12:58:27.094Z,53.21
2019-03-29T13:00:55.697Z,53.34
2019-03-29T13:03:25.372Z,53.42
2019-03-29T13:05:53.681Z,52.92
2019-03-29T13:08:21.982Z,52.54
2019-03-29T13:10:50.473Z,52.75
2019-03-29T13:13:18.764Z,52.04
2019-03-29T13:15:47.100Z,51.87
2019-03-29T13:18:15.485Z,52.12
2019-03-29T13:20:43.809Z,52.53
2019-03-29T13:23:12.110Z,53.57
2019-03-29T13:25:40.414Z,53.83
2019-03-29T13:28:08.715Z,53.37
2019-03-29T13:30:37.243Z,52.05
2019-03-29T13:33:05.667Z,51.63
2019-03-29T13:35:34.321Z,51.45
2019-03-29T13:38:02.873Z,51.15
2019-03-29T13:40:31.346Z,51.28
2019-03-29T13:42:59.635Z,51.71
2019-03-29T13:45:28.235Z,51.56
2019-03-29T13:47:56.520Z,51.56
2019-03-29T13:50:24.821Z,51.63
2019-03-29T13:52:53.119Z,52.48
2019-03-29T13:55:21.443Z,53.38
2019-03-29T13:57:50.021Z,52.84
2019-03-29T14:00:18.570Z,52.38
2019-03-29T14:02:46.926Z,52.17
2019-03-29T14:05:15.229Z,52.10
2019-03-29T14:07:43.557Z,51.73
2019-03-29T14:10:12.083Z,51.58
2019-03-29T14:12:40.413Z,50.78
2019-03-29T14:15:10.216Z,50.35
2019-03-29T14:17:38.518Z,50.70
2019-03-29T14:20:07.558Z,50.99
2019-03-29T14:22:35.929Z,51.21
2019-03-29T14:25:06.112Z,51.11
2019-03-29T14:27:34.401Z,51.55
2019-03-29T14:30:04.557Z,50.98
2019-03-29T14:32:33.156Z,51.39
2019-03-29T14:35:01.744Z,50.77
2019-03-29T14:37:30.042Z,50.73
2019-03-29T14:39:58.362Z,50.83
2019-03-29T14:42:26.647Z,51.12
2019-03-29T14:44:54.954Z,51.08
2019-03-29T14:47:23.247Z,50.43
2019-03-29T14:49:51.559Z,50.53
2019-03-29T14:52:20.193Z,50.90
2019-03-29T14:54:48.783Z,50.90
2019-03-29T14:57:17.073Z,51.27
2019-03-29T14:59:45.402Z,51.17
2019-03-29T15:02:13.703Z,51.08
2019-03-29T15:04:42.040Z,51.02
2019-03-29T15:07:10.397Z,51.08
2019-03-29T15:09:38.724Z,51.26
2019-03-29T15:12:07.342Z,51.03
2019-03-29T15:14:35.779Z,51.00
2019-03-29T15:17:04.077Z,50.85
2019-03-29T15:19:32.402Z,50.96
2019-03-29T15:22:00.688Z,51.04
2019-03-29T15:24:28.988Z,51.14
2019-03-29T15:26:57.272Z,51.06
2019-03-29T15:29:25.606Z,51.17
2019-03-29T15:31:53.913Z,50.89
2019-03-29T15:34:22.233Z,51.11
2019-03-29T15:36:50.537Z,51.40
2019-03-29T15:39:18.840Z,51.33
2019-03-29T15:41:47.156Z,51.34
2019-03-29T15:44:15.446Z,51.46
2019-03-29T15:46:43.763Z,51.42
2019-03-29T15:49:12.068Z,51.75
2019-03-29T15:51:40.660Z,51.25
2019-03-29T15:54:08.949Z,51.42
2019-03-29T15:56:37.520Z,51.52
2019-03-29T15:59:06.106Z,51.70
2019-03-29T16:01:34.706Z,51.59
2019-03-29T16:04:03.277Z,51.78
2019-03-29T16:06:31.602Z,52.29
2019-03-29T16:08:59.885Z,52.52
2019-03-29T16:11:28.235Z,52.57
2019-03-29T16:13:56.554Z,52.53
2019-03-29T16:16:24.853Z,52.64
2019-03-29T16:18:53.186Z,52.45
2019-03-29T16:21:21.824Z,52.63
2019-03-29T16:23:50.138Z,52.74
2019-03-29T16:26:18.420Z,52.60
2019-03-29T16:28:47.064Z,52.71
2019-03-29T16:31:15.361Z,52.72
2019-03-29T16:33:43.795Z,52.83
2019-03-29T16:36:12.120Z,53.18
2019-03-29T16:38:40.429Z,53.31
2019-03-29T16:41:08.722Z,53.33
2019-03-29T16:43:37.352Z,53.47
2019-03-29T16:46:05.744Z,53.43
2019-03-29T16:48:34.058Z,53.68
2019-03-29T16:51:02.404Z,54.01
2019-03-29T16:53:31.155Z,53.98
2019-03-29T16:55:59.736Z,53.92
2019-03-29T16:58:28.050Z,53.94
2019-03-29T17:00:56.349Z,54.40
2019-03-29T17:03:24.984Z,54.61
2019-03-29T17:05:53.313Z,54.77
2019-03-29T17:08:21.840Z,54.83
2019-03-29T17:10:50.162Z,55.11
2019-03-29T17:13:18.896Z,55.21
2019-03-29T17:16:00.743Z,55.32
2019-03-29T17:18:28.736Z,55.40
2019-03-29T17:20:47.923Z,55.60
2019-03-29T17:23:16.231Z,55.66
2019-03-29T17:25:44.546Z,55.81
2019-03-29T17:28:12.848Z,55.98
2019-03-29T17:30:46.208Z,56.09
2019-03-29T17:33:14.952Z,56.32
2019-03-29T17:35:43.272Z,56.75
2019-03-29T17:38:11.577Z,57.03
2019-03-29T17:40:39.899Z,57.21
2019-03-29T17:43:08.202Z,57.69
2019-03-29T17:45:36.525Z,57.82
2019-03-29T17:48:05.791Z,58.08
2019-03-29T17:50:34.165Z,58.21
2019-03-29T17:53:02.546Z,58.42
2019-03-29T17:55:31.965Z,58.66
2019-03-29T17:58:00.392Z,58.92
2019-03-29T18:00:29.168Z,59.31
2019-03-29T18:02:57.458Z,59.59
2019-03-29T18:05:26.125Z,59.90
2019-03-29T18:07:54.410Z,60.19
2019-03-29T18:10:22.728Z,60.52
2019-03-29T18:12:51.187Z,60.92
2019-03-29T18:15:20.003Z,61.32
2019-03-29T18:17:48.637Z,61.89
2019-03-29T18:20:17.224Z,62.46
2019-03-29T18:22:45.624Z,62.95
2019-03-29T18:25:14.217Z,63.23
2019-03-29T18:27:42.530Z,63.56
2019-03-29T18:30:12.542Z,64.00
2019-03-29T18:32:40.850Z,64.49
2019-03-29T18:35:10.762Z,64.75
2019-03-29T18:37:39.271Z,65.08
2019-03-29T18:40:10.997Z,65.39
2019-03-29T18:42:39.302Z,65.62
2019-03-29T18:45:08.081Z,65.89
2019-03-29T18:47:36.398Z,66.19
2019-03-29T18:50:05.769Z,66.48
2019-03-29T18:52:34.090Z,66.64
2019-03-29T18:55:02.418Z,66.80
2019-03-29T18:57:30.752Z,66.98
2019-03-29T18:59:59.050Z,67.24
2019-03-29T19:02:27.636Z,67.52
2019-03-29T19:04:55.939Z,67.77
2019-03-29T19:07:28.637Z,67.96
2019-03-29T19:09:57.016Z,68.11
2019-03-29T19:12:25.342Z,68.10
2019-03-29T19:14:53.651Z,68.19
2019-03-29T19:17:22.235Z,68.34
2019-03-29T19:19:50.607Z,68.42
2019-03-29T19:22:19.330Z,68.68
2019-03-29T19:24:47.900Z,69.11
2019-03-29T19:27:16.238Z,69.38
2019-03-29T19:29:44.551Z,69.46
2019-03-29T19:32:12.850Z,69.58
2019-03-29T19:34:41.163Z,69.87
2019-03-29T19:37:09.490Z,70.21
2019-03-29T19:39:37.883Z,70.53
2019-03-29T19:42:06.184Z,70.83
2019-03-29T19:44:34.497Z,71.13
2019-03-29T19:47:13.346Z,71.46
2019-03-29T19:49:32.840Z,71.77
2019-03-29T19:52:01.149Z,72.06
2019-03-29T19:54:29.498Z,72.26
2019-03-29T19:56:57.775Z,72.50
2019-03-29T19:59:26.430Z,72.80
2019-03-29T20:01:54.988Z,73.10
2019-03-29T20:04:23.289Z,73.39
2019-03-29T20:06:51.608Z,73.73
2019-03-29T20:09:20.208Z,73.98
2019-03-29T20:11:48.796Z,74.19
2019-03-29T20:14:17.124Z,74.45
2019-03-29T20:16:45.454Z,74.57
2019-03-29T20:19:13.869Z,74.88
2019-03-29T20:21:42.260Z,75.07
2019-03-29T20:24:10.591Z,75.20
2019-03-29T20:26:38.903Z,75.42
2019-03-29T20:29:07.237Z,75.38
2019-03-29T20:31:35.574Z,75.21
2019-03-29T20:34:03.930Z,75.23
2019-03-29T20:36:32.273Z,75.41
2019-03-29T20:39:00.584Z,75.55
2019-03-29T20:41:29.006Z,76.05
2019-03-29T20:43:57.338Z,76.20
2019-03-29T20:46:25.670Z,76.30
2019-03-29T20:48:53.966Z,76.29
2019-03-29T20:51:22.864Z,76.15
2019-03-29T20:53:51.202Z,76.15
2019-03-29T20:56:19.513Z,76.32
2019-03-29T20:58:48.201Z,76.53
2019-03-29T21:01:16.748Z,76.78
2019-03-29T21:03:45.097Z,77.07
2019-03-29T21:06:13.405Z,77.26
2019-03-29T21:08:41.744Z,77.49
2019-03-29T21:11:10.058Z,77.73
2019-03-29T21:13:38.455Z,77.93
2019-03-29T21:16:07.432Z,78.12
2019-03-29T21:18:35.747Z,78.00
2019-03-29T21:21:04.064Z,78.11
2019-03-29T21:23:32.397Z,77.91
2019-03-29T21:26:00.728Z,78.02
2019-03-29T21:28:29.040Z,78.25
2019-03-29T21:30:57.351Z,78.44
2019-03-29T21:33:25.647Z,78.67
2019-03-29T21:35:53.973Z,78.64
2019-03-29T21:38:22.292Z,78.73
2019-03-29T21:40:50.605Z,78.72
2019-03-29T21:43:18.928Z,78.89
2019-03-29T21:45:47.310Z,79.05
2019-03-29T21:48:28.559Z,79.29
2019-03-29T21:50:45.650Z,79.25
2019-03-29T21:53:15.177Z,79.16
2019-03-29T21:55:43.506Z,79.31
2019-03-29T21:58:11.836Z,79.41
2019-03-29T22:00:40.422Z,79.53
2019-03-29T22:03:08.731Z,79.73
2019-03-29T22:05:37.050Z,79.62
2019-03-29T22:08:05.603Z,79.62
2019-03-29T22:10:34.083Z,79.50
2019-03-29T22:13:02.411Z,79.42
2019-03-29T22:15:30.719Z,79.30
2019-03-29T22:17:59.125Z,79.35
2019-03-29T22:20:27.668Z,79.25
2019-03-29T22:22:55.995Z,79.23
2019-03-29T22:25:24.290Z,79.15
2019-03-29T22:27:52.613Z,79.35
2019-03-29T22:30:21.102Z,79.36
2019-03-29T22:32:49.423Z,79.94
2019-03-29T22:35:17.737Z,80.05
2019-03-29T22:37:46.316Z,80.01
2019-03-29T22:40:14.635Z,80.21
2019-03-29T22:42:42.943Z,80.15
2019-03-29T22:45:11.324Z,80.31
2019-03-29T22:47:39.651Z,80.58
2019-03-29T22:50:08.494Z,80.54
2019-03-29T22:52:37.353Z,80.53
2019-03-29T22:55:07.292Z,80.35
2019-03-29T22:57:35.588Z,80.22
2019-03-29T23:00:12.832Z,80.46
2019-03-29T23:02:41.199Z,80.79
2019-03-29T23:05:09.593Z,80.94
2019-03-29T23:07:37.952Z,80.75
2019-03-29T23:10:06.834Z,80.72
2019-03-29T23:12:35.158Z,81.02
2019-03-29T23:15:04.297Z,81.05
2019-03-29T23:17:32.604Z,80.98
2019-03-29T23:20:00.892Z,81.32
2019-03-29T23:22:29.212Z,81.31
2019-03-29T23:24:57.794Z,81.28
2019-03-29T23:27:26.111Z,81.28
2019-03-29T23:29:54.485Z,81.37
2019-03-29T23:32:22.788Z,81.52
2019-03-29T23:34:51.076Z,81.37
2019-03-29T23:37:19.383Z,81.44
2019-03-29T23:39:47.697Z,81.49
2019-03-29T23:42:15.987Z,81.54
2019-03-29T23:44:44.533Z,81.63
2019-03-29T23:47:13.311Z,81.63
2019-03-29T23:49:41.640Z,81.46
2019-03-29T23:52:09.924Z,81.51
2019-03-29T23:54:38.265Z,81.27
2019-03-29T23:57:06.941Z,81.32
2019-03-29T23:59:35.285Z,81.33
